Time;durP1;ratioP1;P1;durP2;ratioP2;P2;SDS_P1;SDS_P2;PMS_P1;PMS_P2;Temp;Humidity;BMP_temperature;BMP_pressure;BME280_temperature;BME280_humidity;BME280_pressure;Samples;Min_cycle;Max_cycle;Signal;HPM_P1;HPM_P2
2022/05/10 00:01:52;;;;;;;5.18;4.65;;;;;;;;;;12533955;28;20032;-84
2022/05/10 00:07:55;;;;;;;4.57;4.18;;;;;;;;;;12551629;28;20481;-84
2022/05/10 00:13:57;;;;;;;5.35;4.40;;;;;;;;;;12533425;28;20041;-83
2022/05/10 00:19:59;;;;;;;5.18;4.72;;;;;;;;;;12533323;28;20052;-83
2022/05/10 00:48:57;;;;;;;5.63;5.13;;;;;;;;;;12557871;28;20044;-83
2022/05/10 00:55:06;;;;;;;5.25;4.68;;;;;;;;;;12516965;28;20490;-84
2022/05/10 01:01:09;;;;;;;5.45;4.82;;;;;;;;;;12549659;28;20080;-83
2022/05/10 01:07:24;;;;;;;6.90;4.78;;;;;;;;;;12550046;28;20033;-83
2022/05/10 01:13:32;;;;;;;5.03;4.35;;;;;;;;;;12515823;28;20064;-83
2022/05/10 01:19:34;;;;;;;3.80;3.33;;;;;;;;;;12532318;28;20053;-83
2022/05/10 01:25:44;;;;;;;4.57;4.20;;;;;;;;;;12549039;28;20037;-83
2022/05/10 01:33:29;;;;;;;7.38;5.40;;;;;;;;;;12548423;28;20040;-83
2022/05/10 01:38:26;;;;;;;5.45;4.95;;;;;;;;;;12548073;28;20029;-83
2022/05/10 01:44:30;;;;;;;5.35;4.88;;;;;;;;;;12530387;28;20033;-83
2022/05/10 01:50:45;;;;;;;5.10;4.65;;;;;;;;;;12514050;28;20029;-83
2022/05/10 01:56:48;;;;;;;5.63;5.13;;;;;;;;;;12547630;28;20402;-83
2022/05/10 02:02:56;;;;;;;5.70;4.97;;;;;;;;;;12548147;28;20040;-83
2022/05/10 02:08:58;;;;;;;4.88;4.47;;;;;;;;;;12530610;28;20032;-83
2022/05/10 02:15:07;;;;;;;5.47;4.97;;;;;;;;;;12516200;28;20049;-83
2022/05/10 02:21:18;;;;;;;6.88;5.32;;;;;;;;;;12530987;28;20053;-84
2022/05/10 02:27:22;;;;;;;4.88;4.45;;;;;;;;;;12528504;28;20044;-83
2022/05/10 02:33:25;;;;;;;6.38;5.43;;;;;;;;;;12528971;28;20055;-83
2022/05/10 02:39:27;;;;;;;6.57;5.47;;;;;;;;;;12546026;28;20037;-83
2022/05/10 02:45:28;;;;;;;6.00;5.40;;;;;;;;;;12511547;28;20040;-83
2022/05/10 02:51:30;;;;;;;5.70;4.93;;;;;;;;;;12545274;28;20056;-83
2022/05/10 02:57:32;;;;;;;6.23;4.87;;;;;;;;;;12545930;28;20382;-83
2022/05/10 03:03:34;;;;;;;;;;;;;;;;;;12511273;28;20033;-83
2022/05/10 03:09:36;;;;;;;6.18;5.13;;;;;;;;;;12511678;28;19913;-83
2022/05/10 03:15:38;;;;;;;6.43;5.63;;;;;;;;;;12555290;28;20041;-83
2022/05/10 03:21:40;;;;;;;5.97;5.47;;;;;;;;;;12555111;28;20049;-83
2022/05/10 03:27:42;;;;;;;5.38;4.88;;;;;;;;;;12554709;28;20047;-83
2022/05/10 03:33:44;;;;;;;7.03;4.97;;;;;;;;;;12554133;28;20088;-83
2022/05/10 03:39:46;;;;;;;6.15;5.10;;;;;;;;;;12535815;28;20397;-83
2022/05/10 03:45:47;;;;;;;5.20;4.80;;;;;;;;;;12535124;28;20029;-83
2022/05/10 03:51:49;;;;;;;4.97;4.57;;;;;;;;;;12534434;28;20049;-83
2022/05/10 03:57:52;;;;;;;5.67;5.17;;;;;;;;;;12535069;28;20044;-83
2022/05/10 04:03:54;;;;;;;6.05;5.55;;;;;;;;;;12551811;28;20643;-83
2022/05/10 04:09:57;;;;;;;5.70;5.28;;;;;;;;;;12517896;28;20036;-83
2022/05/10 04:15:59;;;;;;;5.17;4.63;;;;;;;;;;12533333;28;20064;-83
2022/05/10 04:22:01;;;;;;;5.47;4.97;;;;;;;;;;12516552;28;20057;-83
2022/05/10 04:28:05;;;;;;;4.97;4.53;;;;;;;;;;12552255;28;20033;-82
2022/05/10 04:34:07;;;;;;;4.90;4.47;;;;;;;;;;12533828;28;20406;-83
2022/05/10 04:46:30;;;;;;;4.60;4.03;;;;;;;;;;12535543;28;20036;-83
2022/05/10 04:52:32;;;;;;;5.60;5.00;;;;;;;;;;12515280;28;20045;-83
2022/05/10 04:58:35;;;;;;;6.43;5.93;;;;;;;;;;12549432;28;20391;-83
2022/05/10 05:04:36;;;;;;;4.85;4.38;;;;;;;;;;12531679;28;20076;-83
2022/05/10 05:10:38;;;;;;;4.67;4.27;;;;;;;;;;12549943;28;20048;-82
2022/05/10 05:16:40;;;;;;;4.47;4.00;;;;;;;;;;12530923;28;20532;-83
2022/05/10 05:22:42;;;;;;;5.33;4.93;;;;;;;;;;12514409;28;20150;-83
2022/05/10 05:28:43;;;;;;;4.37;4.07;;;;;;;;;;12530612;28;20033;-83
2022/05/10 05:34:45;;;;;;;4.75;4.30;;;;;;;;;;12512760;28;20060;-81
2022/05/10 05:40:47;;;;;;;4.13;3.77;;;;;;;;;;12487501;28;20033;-79
2022/05/10 05:46:50;;;;;;;5.63;5.13;;;;;;;;;;12493448;28;20303;-79
2022/05/10 05:52:52;;;;;;;;;;;;;;;;;;12479129;28;20207;-80
2022/05/10 05:58:56;;;;;;;2.33;2.13;;;;;;;;;;12465300;28;19920;-80
2022/05/10 06:04:58;;;;;;;20.80;12.93;;;;;;;;;;12480337;28;20505;-81
2022/05/10 06:11:00;;;;;;;9.27;8.33;;;;;;;;;;12499465;28;20501;-81
2022/05/10 06:17:04;;;;;;;7.45;6.65;;;;;;;;;;12453427;28;20025;-79
2022/05/10 06:23:06;;;;;;;;;;;;;;;;;;12490573;28;20056;-80
2022/05/10 06:29:07;;;;;;;8.68;7.78;;;;;;;;;;12485596;28;19916;-81
2022/05/10 06:35:09;;;;;;;6.38;5.80;;;;;;;;;;12470218;28;20049;-79
2022/05/10 06:41:11;;;;;;;;;;;;;;;;;;12480622;28;20033;-79
2022/05/10 06:47:13;;;;;;;5.07;4.30;;;;;;;;;;12485985;28;19912;-79
2022/05/10 06:53:15;;;;;;;5.80;5.30;;;;;;;;;;12455914;28;20064;-79
2022/05/10 06:59:16;;;;;;;5.95;5.13;;;;;;;;;;12447747;28;20037;-79
2022/05/10 07:05:18;;;;;;;7.60;6.90;;;;;;;;;;12444059;28;20037;-80
2022/05/10 07:11:20;;;;;;;58.25;52.95;;;;;;;;;;12486714;28;20049;-80
2022/05/10 07:17:22;;;;;;;38.08;34.53;;;;;;;;;;12475691;28;20033;-79
2022/05/10 07:23:26;;;;;;;20.25;18.48;;;;;;;;;;12475054;28;20476;-80
2022/05/10 07:29:27;;;;;;;16.33;14.82;;;;;;;;;;12475835;28;20041;-80
2022/05/10 07:41:53;;;;;;;12.18;10.48;;;;;;;;;;12477589;28;20045;-80
2022/05/10 07:47:55;;;;;;;7.20;6.60;;;;;;;;;;12462614;28;20040;-80
2022/05/10 07:53:58;;;;;;;7.45;6.68;;;;;;;;;;12458082;28;20050;-82
2022/05/10 08:00:00;;;;;;;7.57;6.97;;;;;;;;;;12486368;28;20021;-83
2022/05/10 08:06:02;;;;;;;8.88;8.00;;;;;;;;;;12484289;28;20029;-82
2022/05/10 08:12:04;;;;;;;8.27;5.57;;;;;;;;;;12489545;28;20041;-81
2022/05/10 08:18:09;;;;;;;6.18;5.63;;;;;;;;;;12452669;28;20052;-83
2022/05/10 08:24:11;;;;;;;6.07;5.50;;;;;;;;;;12485092;28;20025;-81
2022/05/10 08:30:13;;;;;;;10.73;9.13;;;;;;;;;;12481329;28;20033;-84
2022/05/10 08:36:35;;;;;;;8.50;7.65;;;;;;;;;;12484467;28;20046;-84
2022/05/10 08:42:37;;;;;;;;;;;;;;;;;;12472567;28;20028;-80
2022/05/10 08:48:38;;;;;;;20.77;18.63;;;;;;;;;;12470838;28;20220;-79
2022/05/10 08:54:41;;;;;;;10.45;9.35;;;;;;;;;;12480471;28;20054;-79
2022/05/10 09:00:48;;;;;;;42.38;38.50;;;;;;;;;;12471717;28;20025;-81
2022/05/10 09:07:12;;;;;;;10.60;9.50;;;;;;;;;;12957793;22;20067;-81
2022/05/10 09:13:18;;;;;;;7.70;6.90;;;;;;;;;;12510497;28;20033;-82
2022/05/10 09:19:22;;;;;;;6.43;5.78;;;;;;;;;;12503641;28;20362;-79
2022/05/10 09:25:38;;;;;;;10.40;9.50;;;;;;;;;;12523865;28;20031;-83
2022/05/10 09:38:06;;;;;;;6.20;5.67;;;;;;;;;;12535910;28;20036;-82
2022/05/10 09:44:20;;;;;;;6.35;5.03;;;;;;;;;;12535905;28;20284;-82
2022/05/10 09:50:26;;;;;;;5.35;4.85;;;;;;;;;;12540361;28;20039;-82
2022/05/10 09:56:30;;;;;;;5.22;4.70;;;;;;;;;;12528721;28;20045;-84
2022/05/10 10:02:33;;;;;;;4.22;3.78;;;;;;;;;;12539153;28;20032;-83
2022/05/10 10:08:39;;;;;;;3.58;3.28;;;;;;;;;;12536005;28;20682;-82
2022/05/10 10:14:46;;;;;;;3.63;3.03;;;;;;;;;;12507277;28;20481;-83
2022/05/10 10:20:47;;;;;;;3.53;2.80;;;;;;;;;;12527880;28;20052;-82
2022/05/10 10:26:51;;;;;;;3.65;2.88;;;;;;;;;;12514953;28;20020;-82
2022/05/10 10:33:13;;;;;;;4.53;2.75;;;;;;;;;;12502746;28;20049;-82
2022/05/10 10:39:23;;;;;;;2.35;2.17;;;;;;;;;;12513150;28;20486;-83
2022/05/10 10:45:33;;;;;;;3.20;2.90;;;;;;;;;;12517571;28;20037;-83
2022/05/10 10:51:35;;;;;;;7.53;3.05;;;;;;;;;;12489813;28;20033;-84
2022/05/10 10:57:40;;;;;;;6.78;5.20;;;;;;;;;;12510367;28;20035;-80
2022/05/10 11:03:57;;;;;;;4.28;3.70;;;;;;;;;;12522588;28;20033;-80
2022/05/10 11:09:59;;;;;;;2.83;2.63;;;;;;;;;;12534395;28;20057;-78
2022/05/10 11:16:20;;;;;;;2.60;2.40;;;;;;;;;;12511860;28;20045;-78
2022/05/10 11:22:37;;;;;;;6.00;3.60;;;;;;;;;;12497740;28;20040;-81
2022/05/10 11:28:42;;;;;;;2.67;2.47;;;;;;;;;;12535980;28;20032;-80
2022/05/10 11:35:05;;;;;;;3.78;2.88;;;;;;;;;;12550093;28;20037;-80
2022/05/10 11:41:12;;;;;;;2.80;2.60;;;;;;;;;;12551254;28;20272;-81
2022/05/10 11:47:17;;;;;;;5.68;3.20;;;;;;;;;;12535117;28;20036;-79
2022/05/10 11:53:22;;;;;;;3.40;3.10;;;;;;;;;;12550471;28;20048;-79
2022/05/10 11:59:27;;;;;;;4.20;3.80;;;;;;;;;;12534205;28;20036;-77
2022/05/10 12:05:31;;;;;;;7.32;5.47;;;;;;;;;;12551211;28;20045;-76
2022/05/10 12:11:34;;;;;;;4.13;3.83;;;;;;;;;;12533485;28;20516;-77
2022/05/10 12:24:13;;;;;;;4.03;3.58;;;;;;;;;;12549840;28;20397;-76
2022/05/10 12:30:30;;;;;;;4.50;4.07;;;;;;;;;;12549147;28;20394;-77
2022/05/10 12:36:52;;;;;;;3.30;3.00;;;;;;;;;;12541744;28;20061;-78
2022/05/10 12:42:54;;;;;;;3.70;3.20;;;;;;;;;;12548664;28;20037;-77
2022/05/10 12:49:14;;;;;;;4.25;3.53;;;;;;;;;;12530290;28;20040;-76
2022/05/10 12:55:18;;;;;;;3.97;2.60;;;;;;;;;;12549393;28;20056;-77
2022/05/10 13:01:23;;;;;;;3.85;2.78;;;;;;;;;;12547488;28;20047;-77
2022/05/10 13:07:31;;;;;;;9.25;4.53;;;;;;;;;;12530716;28;20057;-78
2022/05/10 13:13:33;;;;;;;6.65;3.70;;;;;;;;;;12547969;28;20481;-78
2022/05/10 13:19:40;;;;;;;3.80;2.80;;;;;;;;;;12546957;28;20043;-79
2022/05/10 13:25:43;;;;;;;4.75;3.90;;;;;;;;;;12530021;28;20033;-78
2022/05/10 13:31:44;;;;;;;5.28;3.35;;;;;;;;;;12529264;28;20044;-77
2022/05/10 13:38:09;;;;;;;4.55;3.10;;;;;;;;;;12547572;28;20037;-79
2022/05/10 13:44:15;;;;;;;3.67;2.53;;;;;;;;;;12508975;28;20040;-79
2022/05/10 13:50:24;;;;;;;3.15;2.80;;;;;;;;;;12546703;28;20386;-78
2022/05/10 13:56:27;;;;;;;4.47;3.28;;;;;;;;;;12545647;28;20393;-79
2022/05/10 14:02:30;;;;;;;6.70;3.05;;;;;;;;;;12546760;28;20048;-78
2022/05/10 14:08:33;;;;;;;5.25;3.10;;;;;;;;;;12546020;28;20048;-79
2022/05/10 14:14:35;;;;;;;2.80;2.42;;;;;;;;;;12527447;28;20083;-78
2022/05/10 14:20:40;;;;;;;5.18;3.35;;;;;;;;;;12544930;28;20036;-79
2022/05/10 14:26:44;;;;;;;3.35;3.05;;;;;;;;;;12545827;28;20039;-78
2022/05/10 14:32:46;;;;;;;3.33;2.75;;;;;;;;;;12542886;28;20036;-77
2022/05/10 14:38:47;;;;;;;3.33;2.90;;;;;;;;;;12544334;28;20064;-78
2022/05/10 14:44:49;;;;;;;3.25;2.95;;;;;;;;;;12544885;28;20037;-77
2022/05/10 14:50:57;;;;;;;2.72;2.47;;;;;;;;;;12544878;28;20040;-78
2022/05/10 14:57:00;;;;;;;3.13;2.83;;;;;;;;;;12544391;28;20037;-78
2022/05/10 15:03:11;;;;;;;5.00;2.88;;;;;;;;;;12543232;28;20045;-78
2022/05/10 15:09:15;;;;;;;3.08;2.30;;;;;;;;;;12543597;28;20056;-78
2022/05/10 15:15:17;;;;;;;3.15;2.63;;;;;;;;;;12543641;28;20432;-78
2022/05/10 15:21:20;;;;;;;3.33;2.75;;;;;;;;;;12543714;28;20036;-77
2022/05/10 15:27:22;;;;;;;4.90;3.00;;;;;;;;;;12542268;28;20036;-77
2022/05/10 15:33:24;;;;;;;2.42;2.20;;;;;;;;;;12543192;28;20398;-77
2022/05/10 15:39:26;;;;;;;3.95;2.20;;;;;;;;;;12544211;28;20377;-77
2022/05/10 15:45:28;;;;;;;4.95;2.67;;;;;;;;;;12542467;28;20378;-77
2022/05/10 15:51:30;;;;;;;5.47;2.50;;;;;;;;;;12525067;28;20028;-77
2022/05/10 15:57:33;;;;;;;3.03;2.28;;;;;;;;;;12541543;28;20048;-76
2022/05/10 16:03:35;;;;;;;2.17;1.83;;;;;;;;;;12525338;28;20037;-76
2022/05/10 16:09:37;;;;;;;2.72;2.10;;;;;;;;;;12542779;28;20057;-83
2022/05/10 16:15:39;;;;;;;4.45;2.47;;;;;;;;;;12544239;28;20044;-81
2022/05/10 16:21:41;;;;;;;2.70;1.85;;;;;;;;;;12556432;28;20033;-85
2022/05/10 16:34:05;;;;;;;2.47;2.22;;;;;;;;;;12549560;28;20063;-78
2022/05/10 16:40:07;;;;;;;4.57;2.50;;;;;;;;;;12550464;28;20040;-77
2022/05/10 16:46:09;;;;;;;4.07;1.70;;;;;;;;;;12549020;28;20036;-80
2022/05/10 16:52:11;;;;;;;4.68;2.22;;;;;;;;;;12549622;28;20063;-77
2022/05/10 16:58:13;;;;;;;4.03;1.83;;;;;;;;;;12548437;28;20040;-78
2022/05/10 17:04:15;;;;;;;2.05;1.70;;;;;;;;;;12549142;28;20029;-78
2022/05/10 17:10:19;;;;;;;2.40;1.90;;;;;;;;;;12549266;28;20061;-83
2022/05/10 17:16:22;;;;;;;3.20;1.98;;;;;;;;;;12530360;28;20497;-78
2022/05/10 17:22:24;;;;;;;1.83;1.50;;;;;;;;;;12547328;28;20036;-77
2022/05/10 17:28:38;;;;;;;3.30;1.50;;;;;;;;;;12547808;28;20032;-78
2022/05/10 17:34:40;;;;;;;3.72;1.75;;;;;;;;;;12546549;28;20391;-77
2022/05/10 17:40:46;;;;;;;3.63;1.58;;;;;;;;;;12548544;28;20037;-77
2022/05/10 17:46:49;;;;;;;2.85;1.90;;;;;;;;;;12547737;28;20421;-83
2022/05/10 17:52:51;;;;;;;3.67;1.42;;;;;;;;;;12546016;28;20036;-77
2022/05/10 17:58:53;;;;;;;1.83;1.60;;;;;;;;;;12528630;28;20052;-79
2022/05/10 18:04:54;;;;;;;2.83;1.50;;;;;;;;;;12546130;28;20032;-79
2022/05/10 18:10:58;;;;;;;2.53;1.33;;;;;;;;;;12545406;28;20053;-79
2022/05/10 18:17:00;;;;;;;3.40;1.42;;;;;;;;;;12544456;28;20036;-79
2022/05/10 18:23:02;;;;;;;3.38;1.50;;;;;;;;;;12545457;28;20279;-79
2022/05/10 18:29:05;;;;;;;2.85;1.52;;;;;;;;;;12544710;28;20044;-79
2022/05/10 18:35:07;;;;;;;3.40;1.70;;;;;;;;;;12527180;28;20048;-79
2022/05/10 18:41:10;;;;;;;2.28;1.20;;;;;;;;;;12542810;28;20386;-79
2022/05/10 18:47:13;;;;;;;2.63;1.60;;;;;;;;;;12543109;28;20033;-79
2022/05/10 18:53:16;;;;;;;2.05;1.33;;;;;;;;;;12544287;28;20052;-79
2022/05/10 18:59:18;;;;;;;2.97;1.60;;;;;;;;;;12526576;28;20044;-79
2022/05/10 19:05:20;;;;;;;1.88;1.67;;;;;;;;;;12543339;28;20045;-80
2022/05/10 19:11:23;;;;;;;;;;;;;;;;;;12543654;28;20052;-78
2022/05/10 19:17:24;;;;;;;1.70;1.60;;;;;;;;;;12542328;28;19943;-79
2022/05/10 19:23:26;;;;;;;2.90;1.90;;;;;;;;;;12542715;28;20409;-80
2022/05/10 19:29:28;;;;;;;;;;;;;;;;;;12527510;28;20033;-79
2022/05/10 19:35:33;;;;;;;2.47;2.15;;;;;;;;;;12542872;28;19948;-80
2022/05/10 19:41:39;;;;;;;2.40;2.15;;;;;;;;;;12541979;28;20066;-79
2022/05/10 19:47:42;;;;;;;2.35;1.85;;;;;;;;;;12542178;28;20040;-79
2022/05/10 19:53:45;;;;;;;3.05;2.45;;;;;;;;;;12546456;28;20048;-79
2022/05/10 19:59:47;;;;;;;2.95;2.10;;;;;;;;;;12551403;28;20477;-80
2022/05/10 20:05:49;;;;;;;3.65;2.70;;;;;;;;;;12552397;28;20040;-79
2022/05/10 20:11:54;;;;;;;4.28;2.83;;;;;;;;;;12550711;28;20516;-79
2022/05/10 20:17:58;;;;;;;4.25;3.28;;;;;;;;;;12551422;28;20040;-80
2022/05/10 20:24:00;;;;;;;3.40;3.03;;;;;;;;;;12551128;28;20390;-79
2022/05/10 20:30:03;;;;;;;3.10;2.80;;;;;;;;;;12550646;28;20033;-79
2022/05/10 20:36:05;;;;;;;2.38;2.10;;;;;;;;;;12551061;28;20401;-80
2022/05/10 20:42:06;;;;;;;3.72;2.58;;;;;;;;;;12550601;28;20390;-80
2022/05/10 20:48:09;;;;;;;2.97;2.78;;;;;;;;;;12550668;28;20040;-80
2022/05/10 20:54:10;;;;;;;;;;;;;;;;;;12532719;28;20497;-80
2022/05/10 21:00:13;;;;;;;2.78;2.58;;;;;;;;;;12549822;28;19908;-80
2022/05/10 21:06:15;;;;;;;3.40;3.10;;;;;;;;;;12547562;28;20057;-80
2022/05/10 21:12:18;;;;;;;2.78;2.45;;;;;;;;;;12549189;28;20029;-80
2022/05/10 21:18:38;;;;;;;3.67;3.38;;;;;;;;;;12549283;28;20028;-80
2022/05/10 21:24:59;;;;;;;3.20;2.97;;;;;;;;;;12547328;28;20048;-80
2022/05/10 21:31:22;;;;;;;4.07;3.78;;;;;;;;;;12548335;28;20044;-79
2022/05/10 21:37:24;;;;;;;4.57;4.18;;;;;;;;;;12547410;28;20544;-80
2022/05/10 21:43:26;;;;;;;5.95;3.50;;;;;;;;;;12529872;28;20389;-80
2022/05/10 21:49:29;;;;;;;4.70;4.13;;;;;;;;;;12546145;28;20052;-79
2022/05/10 21:55:31;;;;;;;4.20;3.42;;;;;;;;;;12546106;28;20044;-80
2022/05/10 22:01:33;;;;;;;4.68;4.28;;;;;;;;;;12545476;28;20048;-80
2022/05/10 22:07:36;;;;;;;6.00;3.75;;;;;;;;;;12545147;28;20048;-80
2022/05/10 22:13:38;;;;;;;4.45;3.58;;;;;;;;;;12544661;28;20041;-80
2022/05/10 22:19:39;;;;;;;4.68;3.47;;;;;;;;;;12544811;28;20393;-80
2022/05/10 22:25:41;;;;;;;3.72;3.42;;;;;;;;;;12544241;28;20047;-80
2022/05/10 22:31:43;;;;;;;3.65;3.35;;;;;;;;;;12545238;28;20037;-79
2022/05/10 22:37:45;;;;;;;4.60;4.20;;;;;;;;;;12546206;28;20060;-80
2022/05/10 22:43:47;;;;;;;4.22;3.83;;;;;;;;;;12544776;28;20033;-80
2022/05/10 22:49:49;;;;;;;;;;;;;;;;;;12545178;28;20040;-80
2022/05/10 22:55:51;;;;;;;3.47;3.15;;;;;;;;;;12526782;28;20266;-80
2022/05/10 23:01:52;;;;;;;3.65;3.35;;;;;;;;;;12544550;28;20033;-80
2022/05/10 23:07:55;;;;;;;4.18;3.88;;;;;;;;;;12543532;28;20053;-80
2022/05/10 23:13:57;;;;;;;3.70;3.40;;;;;;;;;;12544134;28;20051;-80
2022/05/10 23:19:59;;;;;;;5.22;4.55;;;;;;;;;;12544639;28;20037;-80
2022/05/10 23:26:01;;;;;;;;;;;;;;;;;;12543436;28;20401;-80
2022/05/10 23:32:03;;;;;;;4.45;4.05;;;;;;;;;;12536328;28;19908;-80
2022/05/10 23:38:04;;;;;;;4.03;3.60;;;;;;;;;;12553305;28;20202;-80
2022/05/10 23:44:13;;;;;;;5.00;4.50;;;;;;;;;;12535386;28;20480;-80
2022/05/10 23:50:15;;;;;;;5.70;4.55;;;;;;;;;;12553093;28;20037;-80
2022/05/10 23:56:17;;;;;;;5.40;4.50;;;;;;;;;;12552380;28;20045;-80
